sensor_id;sensor_type;location;lat;lon;timestamp;pressure;altitude;pressure_sealevel;temperature;humidity
69667;BME280;66534;52.370;4.832;2023-05-12T00:00:23;101803.16;;;12.21;100.00
69667;BME280;66534;52.370;4.832;2023-05-12T00:00:54;101809.13;;;12.26;100.00
69667;BME280;66534;52.370;4.832;2023-05-12T00:01:26;101809.31;;;12.20;100.00
69667;BME280;66534;52.370;4.832;2023-05-12T00:01:56;101723.47;;;11.69;100.00
69667;BME280;66534;52.370;4.832;2023-05-12T00:02:26;101808.19;;;12.27;100.00
69667;BME280;66534;52.370;4.832;2023-05-12T00:02:57;101803.00;;;12.26;100.00
69667;BME280;66534;52.370;4.832;2023-05-12T00:03:27;101808.31;;;12.24;100.00
69667;BME280;66534;52.370;4.832;2023-05-12T00:03:58;101808.47;;;12.19;100.00
69667;BME280;66534;52.370;4.832;2023-05-12T00:04:28;101804.78;;;12.25;100.00
69667;BME280;66534;52.370;4.832;2023-05-12T00:04:58;101803.19;;;12.19;100.00
69667;BME280;66534;52.370;4.832;2023-05-12T00:05:29;101813.56;;;12.24;100.00
69667;BME280;66534;52.370;4.832;2023-05-12T00:05:59;101812.09;;;12.17;100.00
69667;BME280;66534;52.370;4.832;2023-05-12T00:06:32;101807.13;;;12.08;100.00
69667;BME280;66534;52.370;4.832;2023-05-12T00:07:03;101800.31;;;12.02;100.00
69667;BME280;66534;52.370;4.832;2023-05-12T00:07:35;101803.88;;;12.01;100.00
69667;BME280;66534;52.370;4.832;2023-05-12T00:08:05;101802.16;;;12.00;100.00
69667;BME280;66534;52.370;4.832;2023-05-12T00:08:36;101807.59;;;11.95;100.00
69667;BME280;66534;52.370;4.832;2023-05-12T00:09:06;101796.78;;;12.03;100.00
69667;BME280;66534;52.370;4.832;2023-05-12T00:09:37;101801.19;;;12.03;100.00
69667;BME280;66534;52.370;4.832;2023-05-12T00:10:07;101800.16;;;12.07;100.00
69667;BME280;66534;52.370;4.832;2023-05-12T00:10:38;101800.47;;;11.98;100.00
69667;BME280;66534;52.370;4.832;2023-05-12T00:11:09;101806.75;;;11.93;100.00
69667;BME280;66534;52.370;4.832;2023-05-12T00:11:40;101804.28;;;11.89;100.00
69667;BME280;66534;52.370;4.832;2023-05-12T00:12:10;101810.31;;;11.92;100.00
69667;BME280;66534;52.370;4.832;2023-05-12T00:12:40;101800.47;;;11.98;100.00
69667;BME280;66534;52.370;4.832;2023-05-12T00:13:11;101803.91;;;12.00;100.00
69667;BME280;66534;52.370;4.832;2023-05-12T00:13:41;101799.47;;;12.02;100.00
69667;BME280;66534;52.370;4.832;2023-05-12T00:14:12;101801.06;;;12.06;100.00
69667;BME280;66534;52.370;4.832;2023-05-12T00:14:43;101807.19;;;12.06;100.00
69667;BME280;66534;52.370;4.832;2023-05-12T00:15:13;101799.63;;;12.22;100.00
69667;BME280;66534;52.370;4.832;2023-05-12T00:15:44;101803.19;;;12.19;100.00
69667;BME280;66534;52.370;4.832;2023-05-12T00:16:14;101799.53;;;12.00;100.00
69667;BME280;66534;52.370;4.832;2023-05-12T00:16:46;101807.63;;;11.94;100.00
69667;BME280;66534;52.370;4.832;2023-05-12T00:17:20;101801.88;;;12.08;100.00
69667;BME280;66534;52.370;4.832;2023-05-12T00:17:51;101804.19;;;12.17;100.00
69667;BME280;66534;52.370;4.832;2023-05-12T00:18:21;101798.59;;;12.26;100.00
69667;BME280;66534;52.370;4.832;2023-05-12T00:18:52;101800.38;;;12.26;100.00
69667;BME280;66534;52.370;4.832;2023-05-12T00:19:22;101807.25;;;12.30;100.00
69667;BME280;66534;52.370;4.832;2023-05-12T00:19:52;101808.00;;;12.33;100.00
69667;BME280;66534;52.370;4.832;2023-05-12T00:20:23;101798.94;;;12.17;100.00
69667;BME280;66534;52.370;4.832;2023-05-12T00:20:54;101802.34;;;12.19;100.00
69667;BME280;66534;52.370;4.832;2023-05-12T00:21:25;101806.06;;;12.13;100.00
69667;BME280;66534;52.370;4.832;2023-05-12T00:21:56;101808.31;;;12.24;100.00
69667;BME280;66534;52.370;4.832;2023-05-12T00:22:26;101804.03;;;12.21;100.00
69667;BME280;66534;52.370;4.832;2023-05-12T00:22:56;101804.88;;;12.22;100.00
69667;BME280;66534;52.370;4.832;2023-05-12T00:23:27;101808.09;;;12.30;100.00
69667;BME280;66534;52.370;4.832;2023-05-12T00:23:57;101803.16;;;12.21;100.00
69667;BME280;66534;52.370;4.832;2023-05-12T00:24:28;101809.38;;;12.18;100.00
69667;BME280;66534;52.370;4.832;2023-05-12T00:24:59;101808.09;;;12.30;100.00
69667;BME280;66534;52.370;4.832;2023-05-12T00:25:30;101805.97;;;12.40;100.00
69667;BME280;66534;52.370;4.832;2023-05-12T00:26:00;101810.28;;;12.42;100.00
69667;BME280;66534;52.370;4.832;2023-05-12T00:26:30;101805.81;;;12.21;100.00
69667;BME280;66534;52.370;4.832;2023-05-12T00:27:01;101800.75;;;12.15;100.00
69667;BME280;66534;52.370;4.832;2023-05-12T00:27:31;101807.78;;;12.14;100.00
69667;BME280;66534;52.370;4.832;2023-05-12T00:28:02;101799.19;;;12.09;100.00
69667;BME280;66534;52.370;4.832;2023-05-12T00:28:32;101805.31;;;12.10;100.00
69667;BME280;66534;52.370;4.832;2023-05-12T00:29:03;101807.50;;;11.97;100.00
69667;BME280;66534;52.370;4.832;2023-05-12T00:29:33;101811.78;;;12.00;100.00
69667;BME280;66534;52.370;4.832;2023-05-12T00:30:05;101805.16;;;12.14;100.00
69667;BME280;66534;52.370;4.832;2023-05-12T00:30:35;101808.03;;;12.07;100.00
69667;BME280;66534;52.370;4.832;2023-05-12T00:31:06;101805.16;;;12.14;100.00
69667;BME280;66534;52.370;4.832;2023-05-12T00:31:37;101807.19;;;12.06;100.00
69667;BME280;66534;52.370;4.832;2023-05-12T00:32:07;101808.88;;;12.09;100.00
69667;BME280;66534;52.370;4.832;2023-05-12T00:32:38;101807.28;;;12.03;100.00
69667;BME280;66534;52.370;4.832;2023-05-12T00:33:08;101804.63;;;12.05;100.00
69667;BME280;66534;52.370;4.832;2023-05-12T00:33:38;101811.66;;;12.04;100.00
69667;BME280;66534;52.370;4.832;2023-05-12T00:34:09;101803.06;;;11.99;100.00
69667;BME280;66534;52.370;4.832;2023-05-12T00:34:39;101813.56;;;11.99;100.00
69667;BME280;66534;52.370;4.832;2023-05-12T00:35:10;101809.97;;;12.02;100.00
69667;BME280;66534;52.370;4.832;2023-05-12T00:35:40;101807.28;;;12.03;100.00
69667;BME280;66534;52.370;4.832;2023-05-12T00:36:10;101806.22;;;12.09;100.00
69667;BME280;66534;52.370;4.832;2023-05-12T00:36:41;101804.72;;;12.02;100.00
69667;BME280;66534;52.370;4.832;2023-05-12T00:37:11;101805.56;;;12.02;100.00
69667;BME280;66534;52.370;4.832;2023-05-12T00:37:42;101807.13;;;12.08;100.00
69667;BME280;66534;52.370;4.832;2023-05-12T00:38:14;101806.41;;;12.04;100.00
69667;BME280;66534;52.370;4.832;2023-05-12T00:38:44;101806.41;;;12.04;100.00
69667;BME280;66534;52.370;4.832;2023-05-12T00:39:14;101809.56;;;12.14;100.00
69667;BME280;66534;52.370;4.832;2023-05-12T00:39:45;101808.13;;;12.29;100.00
69667;BME280;66534;52.370;4.832;2023-05-12T00:40:15;101801.16;;;12.28;100.00
69667;BME280;66534;52.370;4.832;2023-05-12T00:40:46;101804.88;;;12.22;100.00
69667;BME280;66534;52.370;4.832;2023-05-12T00:41:16;101804.19;;;12.17;100.00
69667;BME280;66534;52.370;4.832;2023-05-12T00:41:47;101805.25;;;12.11;100.00
69667;BME280;66534;52.370;4.832;2023-05-12T00:42:19;101799.53;;;12.00;100.00
69667;BME280;66534;52.370;4.832;2023-05-12T00:42:49;101793.34;;;12.01;100.00
69667;BME280;66534;52.370;4.832;2023-05-12T00:43:19;101798.13;;;12.15;100.00
69667;BME280;66534;52.370;4.832;2023-05-12T00:43:50;101799.78;;;12.17;100.00
69667;BME280;66534;52.370;4.832;2023-05-12T00:44:21;101803.59;;;12.09;100.00
69667;BME280;66534;52.370;4.832;2023-05-12T00:44:54;101802.25;;;11.97;100.00
69667;BME280;66534;52.370;4.832;2023-05-12T00:45:24;101804.06;;;11.95;100.00
69667;BME280;66534;52.370;4.832;2023-05-12T00:45:55;101810.91;;;12.01;100.00
69667;BME280;66534;52.370;4.832;2023-05-12T00:46:25;101805.66;;;12.01;100.00
69667;BME280;66534;52.370;4.832;2023-05-12T00:46:56;101807.59;;;11.95;100.00
69667;BME280;66534;52.370;4.832;2023-05-12T00:47:27;101801.19;;;12.03;100.00
69667;BME280;66534;52.370;4.832;2023-05-12T00:47:58;101801.06;;;12.06;100.00
69667;BME280;66534;52.370;4.832;2023-05-12T00:48:28;101801.72;;;12.12;100.00
69667;BME280;66534;52.370;4.832;2023-05-12T00:48:59;101802.75;;;12.08;100.00
69667;BME280;66534;52.370;4.832;2023-05-12T00:49:29;101803.97;;;11.98;100.00
69667;BME280;66534;52.370;4.832;2023-05-12T00:50:01;101805.16;;;11.89;100.00
69667;BME280;66534;52.370;4.832;2023-05-12T00:50:33;101806.06;;;11.88;100.00
69667;BME280;66534;52.370;4.832;2023-05-12T00:51:03;101797.31;;;11.88;100.00
69667;BME280;66534;52.370;4.832;2023-05-12T00:51:35;101794.63;;;11.89;100.00
69667;BME280;66534;52.370;4.832;2023-05-12T00:52:06;101800.41;;;11.99;100.00
69667;BME280;66534;52.370;4.832;2023-05-12T00:52:37;101794.38;;;11.97;100.00
69667;BME280;66534;52.370;4.832;2023-05-12T00:53:07;101793.09;;;12.09;100.00
69667;BME280;66534;52.370;4.832;2023-05-12T00:53:38;101797.50;;;12.08;100.00
69667;BME280;66534;52.370;4.832;2023-05-12T00:54:10;101802.19;;;11.99;100.00
69667;BME280;66534;52.370;4.832;2023-05-12T00:54:41;101793.03;;;12.10;100.00
69667;BME280;66534;52.370;4.832;2023-05-12T00:55:12;101794.47;;;12.19;100.00
69667;BME280;66534;52.370;4.832;2023-05-12T00:55:43;101795.63;;;12.35;100.00
69667;BME280;66534;52.370;4.832;2023-05-12T00:56:13;101796.00;;;12.25;100.00
69667;BME280;66534;52.370;4.832;2023-05-12T00:56:46;101796.13;;;12.21;100.00
69667;BME280;66534;52.370;4.832;2023-05-12T00:57:17;101791.91;;;12.17;100.00
69667;BME280;66534;52.370;4.832;2023-05-12T00:57:49;101791.63;;;12.00;100.00
69667;BME280;66534;52.370;4.832;2023-05-12T00:58:20;101794.31;;;11.99;100.00
69667;BME280;66534;52.370;4.832;2023-05-12T00:58:50;101789.91;;;11.99;100.00
69667;BME280;66534;52.370;4.832;2023-05-12T00:59:20;101788.28;;;11.95;100.00
69667;BME280;66534;52.370;4.832;2023-05-12T00:59:51;101797.19;;;11.91;100.00
69667;BME280;66534;52.370;4.832;2023-05-12T01:00:21;101789.31;;;11.91;100.00
69667;BME280;66534;52.370;4.832;2023-05-12T01:00:52;101801.66;;;11.89;100.00
69667;BME280;66534;52.370;4.832;2023-05-12T01:01:22;101797.78;;;11.99;100.00
69667;BME280;66534;52.370;4.832;2023-05-12T01:01:53;101791.63;;;12.00;100.00
69667;BME280;66534;52.370;4.832;2023-05-12T01:02:23;101798.94;;;11.92;100.00
69667;BME280;66534;52.370;4.832;2023-05-12T01:02:54;101793.16;;;11.81;100.00
69667;BME280;66534;52.370;4.832;2023-05-12T01:03:27;101793.94;;;11.84;100.00
69667;BME280;66534;52.370;4.832;2023-05-12T01:03:59;101794.44;;;11.95;100.00
69667;BME280;66534;52.370;4.832;2023-05-12T01:04:31;101795.22;;;11.98;100.00
69667;BME280;66534;52.370;4.832;2023-05-12T01:05:03;101796.84;;;12.02;100.00
69667;BME280;66534;52.370;4.832;2023-05-12T01:07:24;101801.56;;;11.92;100.00
69667;BME280;66534;52.370;4.832;2023-05-12T01:07:55;101786.56;;;11.95;100.00
69667;BME280;66534;52.370;4.832;2023-05-12T01:08:27;101790.66;;;12.03;100.00
69667;BME280;66534;52.370;4.832;2023-05-12T01:08:58;101788.13;;;12.00;100.00
69667;BME280;66534;52.370;4.832;2023-05-12T01:09:30;101792.09;;;11.86;100.00
69667;BME280;66534;52.370;4.832;2023-05-12T01:10:00;101797.56;;;11.80;100.00
69667;BME280;66534;52.370;4.832;2023-05-12T01:10:30;101794.22;;;11.75;100.00
69667;BME280;66534;52.370;4.832;2023-05-12T01:11:01;101792.47;;;11.76;100.00
69667;BME280;66534;52.370;4.832;2023-05-12T01:11:31;101796.69;;;11.80;100.00
69667;BME280;66534;52.370;4.832;2023-05-12T01:12:01;101787.03;;;11.80;100.00
69667;BME280;66534;52.370;4.832;2023-05-12T01:12:32;101792.09;;;11.86;100.00
69667;BME280;66534;52.370;4.832;2023-05-12T01:13:03;101784.19;;;11.88;100.00
69667;BME280;66534;52.370;4.832;2023-05-12T01:13:33;101793.16;;;11.81;100.00
69667;BME280;66534;52.370;4.832;2023-05-12T01:14:05;101791.47;;;11.78;100.00
69667;BME280;66534;52.370;4.832;2023-05-12T01:14:35;101785.03;;;11.88;100.00
69667;BME280;66534;52.370;4.832;2023-05-12T01:15:05;101785.72;;;11.93;100.00
69667;BME280;66534;52.370;4.832;2023-05-12T01:15:36;101782.34;;;11.90;100.00
69667;BME280;66534;52.370;4.832;2023-05-12T01:16:11;101786.09;;;12.08;100.00
69667;BME280;66534;52.370;4.832;2023-05-12T01:16:46;101783.41;;;12.09;100.00
69667;BME280;66534;52.370;4.832;2023-05-12T01:17:30;101788.25;;;12.21;100.00
69667;BME280;66534;52.370;4.832;2023-05-12T01:18:03;101787.16;;;12.27;100.00
69667;BME280;66534;52.370;4.832;2023-05-12T01:18:36;101785.81;;;12.15;100.00
69667;BME280;66534;52.370;4.832;2023-05-12T01:19:08;101780.72;;;12.11;100.00
69667;BME280;66534;52.370;4.832;2023-05-12T01:19:59;101785.81;;;12.15;100.00
69667;BME280;66534;52.370;4.832;2023-05-12T01:20:33;101783.31;;;12.12;100.00
69667;BME280;66534;52.370;4.832;2023-05-12T01:21:04;101787.16;;;12.02;100.00
69667;BME280;66534;52.370;4.832;2023-05-12T01:21:35;101782.34;;;11.90;100.00
69667;BME280;66534;52.370;4.832;2023-05-12T01:22:06;101779.81;;;11.87;100.00
69667;BME280;66534;52.370;4.832;2023-05-12T01:22:37;101785.19;;;11.84;100.00
69667;BME280;66534;52.370;4.832;2023-05-12T01:23:08;101784.56;;;11.76;100.00
69667;BME280;66534;52.370;4.832;2023-05-12T01:23:41;101780.97;;;11.78;100.00
69667;BME280;66534;52.370;4.832;2023-05-12T01:24:17;101775.81;;;11.75;100.00
69667;BME280;66534;52.370;4.832;2023-05-12T01:24:56;101778.28;;;11.80;100.00
69667;BME280;66534;52.370;4.832;2023-05-12T01:25:30;101782.56;;;11.82;100.00
69667;BME280;66534;52.370;4.832;2023-05-12T01:26:08;101776.16;;;11.91;100.00
69667;BME280;66534;52.370;4.832;2023-05-12T01:26:39;101781.59;;;11.86;100.00
69667;BME280;66534;52.370;4.832;2023-05-12T01:27:10;101788.63;;;11.86;100.00
69667;BME280;66534;52.370;4.832;2023-05-12T01:27:41;101779.34;;;11.74;100.00
69667;BME280;66534;52.370;4.832;2023-05-12T01:28:12;101777.53;;;11.76;100.00
69667;BME280;66534;52.370;4.832;2023-05-12T01:28:44;101775.44;;;11.87;100.00
69667;BME280;66534;52.370;4.832;2023-05-12T01:29:16;101778.31;;;11.78;100.00
69667;BME280;66534;52.370;4.832;2023-05-12T01:29:47;101778.16;;;11.84;100.00
69667;BME280;66534;52.370;4.832;2023-05-12T01:30:18;101769.03;;;11.94;100.00
69667;BME280;66534;52.370;4.832;2023-05-12T01:30:50;101771.81;;;11.90;100.00
69667;BME280;66534;52.370;4.832;2023-05-12T01:31:21;101774.34;;;11.93;100.00
69667;BME280;66534;52.370;4.832;2023-05-12T01:31:51;101776.31;;;11.86;100.00
69667;BME280;66534;52.370;4.832;2023-05-12T01:32:22;101776.31;;;11.86;100.00
69667;BME280;66534;52.370;4.832;2023-05-12T01:32:52;101776.75;;;11.99;100.00
69667;BME280;66534;52.370;4.832;2023-05-12T01:33:23;101771.19;;;12.08;100.00
69667;BME280;66534;52.370;4.832;2023-05-12T01:33:54;101771.03;;;12.13;100.00
69667;BME280;66534;52.370;4.832;2023-05-12T01:34:24;101778.06;;;12.12;100.00
69667;BME280;66534;52.370;4.832;2023-05-12T01:34:55;101775.19;;;12.18;100.00
69667;BME280;66534;52.370;4.832;2023-05-12T01:35:25;101769.59;;;12.28;100.00
69667;BME280;66534;52.370;4.832;2023-05-12T01:35:56;101773.25;;;12.24;100.00
69667;BME280;66534;52.370;4.832;2023-05-12T01:36:26;101771.03;;;12.13;100.00
69667;BME280;66534;52.370;4.832;2023-05-12T01:36:56;101767.75;;;12.06;100.00
69667;BME280;66534;52.370;4.832;2023-05-12T01:37:27;101774.81;;;12.29;100.00
69667;BME280;66534;52.370;4.832;2023-05-12T01:37:58;101770.78;;;12.19;100.00
69667;BME280;66534;52.370;4.832;2023-05-12T01:38:28;101771.06;;;12.11;100.00
69667;BME280;66534;52.370;4.832;2023-05-12T01:38:58;101766.56;;;12.15;100.00
69667;BME280;66534;52.370;4.832;2023-05-12T01:39:29;101768.84;;;12.01;100.00
69667;BME280;66534;52.370;4.832;2023-05-12T01:39:59;101762.47;;;12.06;100.00
69667;BME280;66534;52.370;4.832;2023-05-12T01:40:30;101769.88;;;12.20;100.00
69667;BME280;66534;52.370;4.832;2023-05-12T01:41:01;101769.41;;;12.32;100.00
69667;BME280;66534;52.370;4.832;2023-05-12T01:41:31;101771.84;;;12.38;100.00
69667;BME280;66534;52.370;4.832;2023-05-12T01:42:02;101764.69;;;12.42;100.00
69667;BME280;66534;52.370;4.832;2023-05-12T01:42:33;101765.91;;;12.33;100.00
69667;BME280;66534;52.370;4.832;2023-05-12T01:43:04;101759.16;;;12.25;100.00
69667;BME280;66534;52.370;4.832;2023-05-12T01:43:34;101768.59;;;12.07;100.00
69667;BME280;66534;52.370;4.832;2023-05-12T01:44:04;101770.63;;;11.99;100.00
69667;BME280;66534;52.370;4.832;2023-05-12T01:44:35;101762.59;;;12.03;100.00
69667;BME280;66534;52.370;4.832;2023-05-12T01:45:05;101766.47;;;11.93;100.00
69667;BME280;66534;52.370;4.832;2023-05-12T01:45:36;101764.34;;;12.03;100.00
69667;BME280;66534;52.370;4.832;2023-05-12T01:46:07;101766.22;;;11.99;100.00
69667;BME280;66534;52.370;4.832;2023-05-12T01:46:39;101768.84;;;12.01;100.00
69667;BME280;66534;52.370;4.832;2023-05-12T01:47:10;101769.72;;;12.00;100.00
69667;BME280;66534;52.370;4.832;2023-05-12T01:47:40;101769.19;;;11.90;100.00
69667;BME280;66534;52.370;4.832;2023-05-12T01:48:11;101769.16;;;11.91;100.00
69667;BME280;66534;52.370;4.832;2023-05-12T01:48:41;101774.13;;;11.99;100.00
69667;BME280;66534;52.370;4.832;2023-05-12T01:49:13;101774.88;;;12.03;100.00
69667;BME280;66534;52.370;4.832;2023-05-12T01:49:43;101774.59;;;12.10;100.00
69667;BME280;66534;52.370;4.832;2023-05-12T01:50:14;101777.66;;;12.23;100.00
69667;BME280;66534;52.370;4.832;2023-05-12T01:50:45;101777.03;;;12.16;100.00
69667;BME280;66534;52.370;4.832;2023-05-12T01:51:15;101771.72;;;11.93;100.00
69667;BME280;66534;52.370;4.832;2023-05-12T01:51:46;101769.28;;;11.87;100.00
69667;BME280;66534;52.370;4.832;2023-05-12T01:52:16;101775.69;;;11.78;100.00
69667;BME280;66534;52.370;4.832;2023-05-12T01:52:47;101777.16;;;11.88;100.00
69667;BME280;66534;52.370;4.832;2023-05-12T01:53:17;101772.59;;;11.93;100.00
69667;BME280;66534;52.370;4.832;2023-05-12T01:53:48;101780.00;;;11.81;100.00
69667;BME280;66534;52.370;4.832;2023-05-12T01:54:18;101764.84;;;11.89;100.00
69667;BME280;66534;52.370;4.832;2023-05-12T01:54:48;101764.00;;;11.88;100.00
69667;BME280;66534;52.370;4.832;2023-05-12T01:55:20;101771.06;;;11.86;100.00
69667;BME280;66534;52.370;4.832;2023-05-12T01:55:53;101776.47;;;11.83;100.00
69667;BME280;66534;52.370;4.832;2023-05-12T01:56:24;101771.06;;;11.86;100.00
69667;BME280;66534;52.370;4.832;2023-05-12T01:56:55;101770.88;;;11.92;100.00
69667;BME280;66534;52.370;4.832;2023-05-12T01:57:25;101773.75;;;11.85;100.00
69667;BME280;66534;52.370;4.832;2023-05-12T01:57:56;101772.22;;;11.78;100.00
69667;BME280;66534;52.370;4.832;2023-05-12T01:58:26;101776.53;;;11.80;100.00
69667;BME280;66534;52.370;4.832;2023-05-12T01:58:57;101775.00;;;11.73;100.00
69667;BME280;66534;52.370;4.832;2023-05-12T01:59:27;101772.38;;;11.73;100.00
69667;BME280;66534;52.370;4.832;2023-05-12T01:59:57;101772.63;;;11.65;100.00
69667;BME280;66534;52.370;4.832;2023-05-12T02:00:29;101775.06;;;11.71;100.00
69667;BME280;66534;52.370;4.832;2023-05-12T02:00:59;101765.09;;;11.81;100.00
69667;BME280;66534;52.370;4.832;2023-05-12T02:01:29;101764.47;;;11.75;100.00
69667;BME280;66534;52.370;4.832;2023-05-12T02:02:01;101771.88;;;11.88;100.00
69667;BME280;66534;52.370;4.832;2023-05-12T02:02:31;101766.22;;;11.99;100.00
69667;BME280;66534;52.370;4.832;2023-05-12T02:03:03;101773.09;;;12.03;100.00
69667;BME280;66534;52.370;4.832;2023-05-12T02:03:33;101772.06;;;11.84;100.00
69667;BME280;66534;52.370;4.832;2023-05-12T02:04:04;101764.41;;;11.76;100.00
69667;BME280;66534;52.370;4.832;2023-05-12T02:04:34;101768.56;;;11.82;100.00
69667;BME280;66534;52.370;4.832;2023-05-12T02:05:05;101767.97;;;11.73;100.00
69667;BME280;66534;52.370;4.832;2023-05-12T02:05:36;101767.22;;;11.70;100.00
69667;BME280;66534;52.370;4.832;2023-05-12T02:06:06;101765.19;;;11.78;100.00
69667;BME280;66534;52.370;4.832;2023-05-12T02:06:37;101764.97;;;11.86;100.00
69667;BME280;66534;52.370;4.832;2023-05-12T02:07:07;101765.94;;;11.82;100.00
69667;BME280;66534;52.370;4.832;2023-05-12T02:07:38;101771.53;;;11.72;100.00
69667;BME280;66534;52.370;4.832;2023-05-12T02:08:08;101763.56;;;11.74;100.00
69667;BME280;66534;52.370;4.832;2023-05-12T02:08:38;101769.97;;;11.67;100.00
69667;BME280;66534;52.370;4.832;2023-05-12T02:40:28;101761.47;;;11.85;100.00
69667;BME280;66534;52.370;4.832;2023-05-12T02:40:58;101757.50;;;11.99;100.00
69667;BME280;66534;52.370;4.832;2023-05-12T02:41:29;101753.81;;;12.04;100.00
69667;BME280;66534;52.370;4.832;2023-05-12T02:41:59;101755.69;;;12.01;100.00
69667;BME280;66534;52.370;4.832;2023-05-12T02:42:30;101746.97;;;11.99;100.00
69667;BME280;66534;52.370;4.832;2023-05-12T02:43:04;101749.16;;;11.87;100.00
69667;BME280;66534;52.370;4.832;2023-05-12T02:43:35;101750.00;;;11.88;100.00
69667;BME280;66534;52.370;4.832;2023-05-12T02:44:05;101749.63;;;11.72;100.00
69667;BME280;66534;52.370;4.832;2023-05-12T02:44:36;101759.66;;;11.61;100.00
69667;BME280;66534;52.370;4.832;2023-05-12T02:45:06;101748.28;;;11.60;100.00
69667;BME280;66534;52.370;4.832;2023-05-12T02:45:37;101752.47;;;11.66;100.00
69667;BME280;66534;52.370;4.832;2023-05-12T02:46:09;101748.03;;;11.68;100.00
69667;BME280;66534;52.370;4.832;2023-05-12T02:46:39;101746.34;;;11.65;100.00
69667;BME280;66534;52.370;4.832;2023-05-12T02:47:09;101757.53;;;11.72;100.00
69667;BME280;66534;52.370;4.832;2023-05-12T02:47:40;101750.44;;;11.74;100.00
69667;BME280;66534;52.370;4.832;2023-05-12T02:48:10;101755.59;;;11.77;100.00
69667;BME280;66534;52.370;4.832;2023-05-12T02:48:41;101748.72;;;11.73;100.00
69667;BME280;66534;52.370;4.832;2023-05-12T02:49:11;101752.09;;;11.77;100.00
69667;BME280;66534;52.370;4.832;2023-05-12T02:49:41;101755.66;;;11.76;100.00
69667;BME280;66534;52.370;4.832;2023-05-12T02:50:12;101753.59;;;11.85;100.00
69667;BME280;66534;52.370;4.832;2023-05-12T02:50:42;101756.91;;;11.90;100.00
69667;BME280;66534;52.370;4.832;2023-05-12T02:51:13;101749.19;;;11.86;100.00
69667;BME280;66534;52.370;4.832;2023-05-12T02:51:43;101747.53;;;11.83;100.00
69667;BME280;66534;52.370;4.832;2023-05-12T02:52:13;101747.41;;;11.86;100.00
69667;BME280;66534;52.370;4.832;2023-05-12T02:52:44;101749.16;;;11.87;100.00
69667;BME280;66534;52.370;4.832;2023-05-12T02:53:14;101753.53;;;11.87;100.00
69667;BME280;66534;52.370;4.832;2023-05-12T02:53:45;101759.75;;;11.84;100.00
69667;BME280;66534;52.370;4.832;2023-05-12T02:54:16;101751.34;;;11.73;100.00
69667;BME280;66534;52.370;4.832;2023-05-12T02:54:46;101746.84;;;11.77;100.00
69667;BME280;66534;52.370;4.832;2023-05-12T02:55:16;101748.84;;;11.95;100.00
69667;BME280;66534;52.370;4.832;2023-05-12T02:55:47;101758.75;;;11.88;100.00
69667;BME280;66534;52.370;4.832;2023-05-12T02:56:18;101756.34;;;11.81;100.00
69667;BME280;66534;52.370;4.832;2023-05-12T02:56:48;101747.22;;;11.92;100.00
69667;BME280;66534;52.370;4.832;2023-05-12T02:57:18;101746.78;;;11.78;100.00
69667;BME280;66534;52.370;4.832;2023-05-12T02:57:49;101751.81;;;11.86;100.00
69667;BME280;66534;52.370;4.832;2023-05-12T02:58:19;101752.16;;;11.75;100.00
69667;BME280;66534;52.370;4.832;2023-05-12T02:58:50;101750.25;;;11.79;100.00
69667;BME280;66534;52.370;4.832;2023-05-12T02:59:20;101750.41;;;11.76;100.00
69667;BME280;66534;52.370;4.832;2023-05-12T02:59:51;101754.63;;;11.80;100.00
69667;BME280;66534;52.370;4.832;2023-05-12T03:00:21;101741.69;;;11.73;100.00
69667;BME280;66534;52.370;4.832;2023-05-12T03:00:52;101752.03;;;11.78;100.00
69667;BME280;66534;52.370;4.832;2023-05-12T03:01:22;101737.88;;;11.82;100.00
69667;BME280;66534;52.370;4.832;2023-05-12T03:01:53;101750.00;;;11.88;100.00
69667;BME280;66534;52.370;4.832;2023-05-12T03:02:23;101750.75;;;11.91;100.00
69667;BME280;66534;52.370;4.832;2023-05-12T03:02:53;101751.19;;;12.04;100.00
69667;BME280;66534;52.370;4.832;2023-05-12T03:03:24;101752.88;;;12.05;100.00
69667;BME280;66534;52.370;4.832;2023-05-12T03:03:54;101754.66;;;12.05;100.00
69667;BME280;66534;52.370;4.832;2023-05-12T03:04:24;101754.66;;;12.05;100.00
69667;BME280;66534;52.370;4.832;2023-05-12T03:04:55;101744.78;;;11.86;100.00
69667;BME280;66534;52.370;4.832;2023-05-12T03:05:25;101748.41;;;11.82;100.00
69667;BME280;66534;52.370;4.832;2023-05-12T03:05:56;101745.41;;;11.68;100.00
69667;BME280;66534;52.370;4.832;2023-05-12T03:06:26;101746.00;;;11.76;100.00
69667;BME280;66534;52.370;4.832;2023-05-12T03:06:58;101752.88;;;11.80;100.00
69667;BME280;66534;52.370;4.832;2023-05-12T03:07:29;101745.56;;;11.63;100.00
69667;BME280;66534;52.370;4.832;2023-05-12T03:07:59;101755.16;;;11.64;100.00
69667;BME280;66534;52.370;4.832;2023-05-12T03:08:31;101748.03;;;11.68;100.00
69667;BME280;66534;52.370;4.832;2023-05-12T03:09:01;101747.44;;;11.60;100.00
69667;BME280;66534;52.370;4.832;2023-05-12T03:09:32;101749.22;;;11.59;100.00
69667;BME280;66534;52.370;4.832;2023-05-12T03:10:03;101754.25;;;11.65;100.00
69667;BME280;66534;52.370;4.832;2023-05-12T03:10:34;101746.50;;;11.61;100.00
69667;BME280;66534;52.370;4.832;2023-05-12T03:11:04;101742.84;;;11.66;100.00
69667;BME280;66534;52.370;4.832;2023-05-12T03:11:35;101742.72;;;11.69;100.00
69667;BME280;66534;52.370;4.832;2023-05-12T03:12:05;101740.22;;;11.66;100.00
69667;BME280;66534;52.370;4.832;2023-05-12T03:12:36;101740.75;;;11.76;100.00
69667;BME280;66534;52.370;4.832;2023-05-12T03:13:07;101743.25;;;11.79;100.00